Time;durP1;ratioP1;P1;durP2;ratioP2;P2;SDS_P1;SDS_P2;PMS_P1;PMS_P2;Temp;Humidity;BMP_temperature;BMP_pressure;BME280_temperature;BME280_humidity;BME280_pressure;Samples;Min_cycle;Max_cycle;Signal;HPM_P1;HPM_P2
2021/11/03 00:01:42;;;;;;;7.45;5.60;;;;;;;;;;5032791;28;20037;-79
2021/11/03 00:04:08;;;;;;;8.55;5.25;;;;;;;;;;5033065;28;20029;-80
2021/11/03 00:06:35;;;;;;;6.93;5.05;;;;;;;;;;5030586;28;20033;-80
2021/11/03 00:09:02;;;;;;;8.15;5.07;;;;;;;;;;5033332;28;20029;-80
2021/11/03 00:11:30;;;;;;;7.50;4.32;;;;;;;;;;5033298;28;20121;-80
2021/11/03 00:13:56;;;;;;;6.13;4.40;;;;;;;;;;5033342;28;20060;-79
2021/11/03 00:16:22;;;;;;;10.30;4.25;;;;;;;;;;5036066;28;20025;-81
2021/11/03 00:18:48;;;;;;;5.47;3.97;;;;;;;;;;5035667;28;20078;-80
2021/11/03 00:21:14;;;;;;;5.45;4.28;;;;;;;;;;5036805;28;20096;-80
2021/11/03 00:23:40;;;;;;;6.20;3.55;;;;;;;;;;5037038;28;20036;-80
2021/11/03 00:26:06;;;;;;;6.22;3.78;;;;;;;;;;5035820;28;20034;-79
2021/11/03 00:28:32;;;;;;;7.68;3.80;;;;;;;;;;5036963;28;20085;-80
2021/11/03 00:30:59;;;;;;;6.95;4.10;;;;;;;;;;5036771;28;20041;-79
2021/11/03 00:33:26;;;;;;;6.03;3.75;;;;;;;;;;5037086;28;20033;-80
2021/11/03 00:36:00;;;;;;;6.50;3.95;;;;;;;;;;5037355;28;20083;-79
2021/11/03 00:38:26;;;;;;;6.38;3.88;;;;;;;;;;5038744;28;20052;-80
2021/11/03 00:40:52;;;;;;;6.30;4.13;;;;;;;;;;5038382;28;20089;-79
2021/11/03 00:43:19;;;;;;;5.45;3.55;;;;;;;;;;5035771;28;20029;-80
2021/11/03 00:45:45;;;;;;;5.32;3.65;;;;;;;;;;5035429;28;20030;-78
2021/11/03 00:48:11;;;;;;;5.82;4.20;;;;;;;;;;5035376;28;20118;-78
2021/11/03 00:50:38;;;;;;;5.38;4.05;;;;;;;;;;5035697;28;20306;-77
2021/11/03 00:53:04;;;;;;;7.72;4.00;;;;;;;;;;5033758;28;20087;-80
2021/11/03 00:55:30;;;;;;;7.15;4.50;;;;;;;;;;5034143;28;20036;-80
2021/11/03 00:57:56;;;;;;;7.28;4.65;;;;;;;;;;5034394;28;20029;-80
2021/11/03 01:00:22;;;;;;;8.32;5.22;;;;;;;;;;5035386;28;20052;-80
2021/11/03 01:02:49;;;;;;;5.80;4.40;;;;;;;;;;5034785;28;20075;-78
2021/11/03 01:05:16;;;;;;;7.72;5.07;;;;;;;;;;5034451;28;20121;-80
2021/11/03 01:07:42;;;;;;;7.28;4.95;;;;;;;;;;5036562;28;20036;-79
2021/11/03 01:10:09;;;;;;;5.82;4.13;;;;;;;;;;5036827;28;20056;-79
2021/11/03 01:12:35;;;;;;;6.88;3.92;;;;;;;;;;5036781;28;20103;-80
2021/11/03 01:15:02;;;;;;;5.85;4.05;;;;;;;;;;5038355;28;20032;-78
2021/11/03 01:17:28;;;;;;;5.57;4.43;;;;;;;;;;5046791;28;20121;-78
2021/11/03 01:19:54;;;;;;;6.07;4.53;;;;;;;;;;5045606;28;20033;-78
2021/11/03 01:22:20;;;;;;;5.15;4.13;;;;;;;;;;5035016;28;20097;-80
2021/11/03 01:24:46;;;;;;;13.55;4.40;;;;;;;;;;5034836;28;20041;-80
2021/11/03 01:27:12;;;;;;;6.20;4.13;;;;;;;;;;5035316;28;20482;-80
2021/11/03 01:29:38;;;;;;;5.82;3.85;;;;;;;;;;5035313;28;20156;-80
2021/11/03 01:32:04;;;;;;;8.02;4.30;;;;;;;;;;5035510;28;20037;-80
2021/11/03 01:34:30;;;;;;;5.43;3.60;;;;;;;;;;5034367;28;20113;-80
2021/11/03 01:36:56;;;;;;;5.95;3.50;;;;;;;;;;5035653;28;20060;-80
2021/11/03 01:39:22;;;;;;;8.25;3.60;;;;;;;;;;5035323;28;20713;-79
2021/11/03 01:41:48;;;;;;;5.32;3.50;;;;;;;;;;5035470;28;20041;-80
2021/11/03 01:44:16;;;;;;;8.32;3.47;;;;;;;;;;5033683;28;20029;-80
2021/11/03 01:46:44;;;;;;;4.40;3.33;;;;;;;;;;5033766;28;20108;-80
2021/11/03 01:49:23;;;;;;;8.80;3.58;;;;;;;;;;5035741;28;20021;-80
2021/11/03 01:51:52;;;;;;;6.57;3.40;;;;;;;;;;5033751;28;20080;-79
2021/11/03 01:54:21;;;;;;;4.65;3.10;;;;;;;;;;5033601;28;20112;-80
2021/11/03 01:56:48;;;;;;;6.10;3.30;;;;;;;;;;5035920;28;20025;-80
2021/11/03 01:59:26;;;;;;;7.22;3.08;;;;;;;;;;5036520;28;20029;-80
2021/11/03 02:01:52;;;;;;;5.32;3.20;;;;;;;;;;5038090;28;20029;-80
2021/11/03 02:04:19;;;;;;;5.68;2.65;;;;;;;;;;5035836;28;20029;-80
2021/11/03 02:06:45;;;;;;;7.38;2.88;;;;;;;;;;5038122;28;20362;-80
2021/11/03 02:09:11;;;;;;;4.75;2.70;;;;;;;;;;5037504;28;20457;-80
2021/11/03 02:11:38;;;;;;;2.47;2.00;;;;;;;;;;5037364;28;20024;-81
2021/11/03 02:14:05;;;;;;;5.55;2.35;;;;;;;;;;5039705;28;20029;-79
2021/11/03 02:16:33;;;;;;;4.30;2.28;;;;;;;;;;5043577;28;20029;-81
2021/11/03 02:18:59;;;;;;;4.82;2.60;;;;;;;;;;5041324;28;20501;-81
2021/11/03 02:21:29;;;;;;;6.53;2.25;;;;;;;;;;5035527;28;20021;-80
2021/11/03 02:23:57;;;;;;;3.28;1.92;;;;;;;;;;5037384;28;20022;-81
2021/11/03 02:26:25;;;;;;;4.72;2.38;;;;;;;;;;5038140;28;20551;-81
2021/11/03 02:28:51;;;;;;;6.50;2.67;;;;;;;;;;5038458;28;20027;-81
2021/11/03 02:31:30;;;;;;;3.40;2.38;;;;;;;;;;5037147;28;20056;-81
2021/11/03 02:33:56;;;;;;;2.40;1.75;;;;;;;;;;5040443;28;20423;-81
2021/11/03 02:36:22;;;;;;;3.55;2.30;;;;;;;;;;5036974;28;20025;-81
2021/11/03 02:38:48;;;;;;;5.63;2.28;;;;;;;;;;5036405;28;20068;-82
2021/11/03 02:41:27;;;;;;;4.50;2.40;;;;;;;;;;5038089;28;20030;-81
2021/11/03 02:44:04;;;;;;;5.30;2.85;;;;;;;;;;5039309;28;20178;-81
2021/11/03 02:46:30;;;;;;;4.53;2.60;;;;;;;;;;5038173;28;20029;-82
2021/11/03 02:48:56;;;;;;;3.28;2.35;;;;;;;;;;5046036;28;20073;-79
2021/11/03 02:51:30;;;;;;;5.43;2.60;;;;;;;;;;5057258;28;20029;-78
2021/11/03 02:53:57;;;;;;;6.55;2.58;;;;;;;;;;5057309;28;20022;-80
2021/11/03 02:56:27;;;;;;;3.97;2.22;;;;;;;;;;5056901;28;20021;-79
2021/11/03 02:58:53;;;;;;;3.70;2.25;;;;;;;;;;5046681;28;20033;-81
2021/11/03 03:01:34;;;;;;;5.03;2.20;;;;;;;;;;5036692;28;20039;-81
2021/11/03 03:04:01;;;;;;;5.47;2.67;;;;;;;;;;5036063;28;20037;-81
2021/11/03 03:06:28;;;;;;;4.30;2.22;;;;;;;;;;5034373;28;20029;-81
2021/11/03 03:08:55;;;;;;;4.07;1.80;;;;;;;;;;5034905;28;20025;-81
2021/11/03 03:11:22;;;;;;;4.47;1.90;;;;;;;;;;5036343;28;20029;-80
2021/11/03 03:13:49;;;;;;;4.65;2.05;;;;;;;;;;5034022;28;20037;-81
2021/11/03 03:16:15;;;;;;;3.10;1.65;;;;;;;;;;5036124;28;20175;-79
2021/11/03 03:18:42;;;;;;;6.00;2.42;;;;;;;;;;5036923;28;20036;-80
2021/11/03 03:21:08;;;;;;;4.75;1.92;;;;;;;;;;5036798;28;20113;-79
2021/11/03 03:23:34;;;;;;;4.82;2.28;;;;;;;;;;5036402;28;20068;-80
2021/11/03 03:26:00;;;;;;;3.95;2.50;;;;;;;;;;5035828;28;20030;-80
2021/11/03 03:28:27;;;;;;;6.75;2.40;;;;;;;;;;5036919;28;20036;-80
2021/11/03 03:30:53;;;;;;;6.47;2.25;;;;;;;;;;5037182;28;20025;-80
2021/11/03 03:33:19;;;;;;;6.68;2.53;;;;;;;;;;5036152;28;20093;-80
2021/11/03 03:35:45;;;;;;;5.40;2.72;;;;;;;;;;5037806;28;20123;-79
2021/11/03 03:38:11;;;;;;;3.92;2.00;;;;;;;;;;5039658;28;20030;-79
2021/11/03 03:40:37;;;;;;;3.78;2.20;;;;;;;;;;5037562;28;20036;-79
2021/11/03 03:43:04;;;;;;;5.18;2.95;;;;;;;;;;5036269;28;20156;-80
2021/11/03 03:45:30;;;;;;;7.20;2.78;;;;;;;;;;5038860;28;20075;-79
2021/11/03 03:47:56;;;;;;;4.60;3.00;;;;;;;;;;5037553;28;20502;-80
2021/11/03 03:50:22;;;;;;;5.93;2.55;;;;;;;;;;5039289;28;20030;-80
2021/11/03 03:52:48;;;;;;;5.60;2.80;;;;;;;;;;5059476;28;20113;-80
2021/11/03 03:55:14;;;;;;;6.30;3.17;;;;;;;;;;5046671;28;20031;-80
2021/11/03 03:57:40;;;;;;;6.60;3.00;;;;;;;;;;5039252;28;20060;-80
2021/11/03 04:00:08;;;;;;;5.90;2.85;;;;;;;;;;5039489;28;20026;-81
2021/11/03 04:02:34;;;;;;;3.40;2.65;;;;;;;;;;5037664;28;20044;-80
2021/11/03 04:05:00;;;;;;;6.38;3.33;;;;;;;;;;5043344;28;20028;-79
2021/11/03 04:07:26;;;;;;;5.40;2.83;;;;;;;;;;5046739;28;20494;-80
2021/11/03 04:09:52;;;;;;;3.60;2.47;;;;;;;;;;5047637;28;20148;-80
2021/11/03 04:12:18;;;;;;;3.67;2.75;;;;;;;;;;5037893;28;20532;-80
2021/11/03 04:14:44;;;;;;;3.85;2.08;;;;;;;;;;5039793;28;20036;-80
2021/11/03 04:17:10;;;;;;;6.28;3.03;;;;;;;;;;5042920;28;20104;-79
2021/11/03 04:19:36;;;;;;;6.38;2.88;;;;;;;;;;5043198;28;20056;-79
2021/11/03 04:22:02;;;;;;;3.95;2.67;;;;;;;;;;5043279;28;20082;-79
2021/11/03 04:24:28;;;;;;;4.10;2.72;;;;;;;;;;5038243;28;20075;-80
2021/11/03 04:26:54;;;;;;;3.95;2.42;;;;;;;;;;5037698;28;20433;-79
2021/11/03 04:29:21;;;;;;;5.65;3.08;;;;;;;;;;5036960;28;20036;-79
2021/11/03 04:31:47;;;;;;;6.90;2.60;;;;;;;;;;5037394;28;20029;-80
2021/11/03 04:34:14;;;;;;;5.35;2.47;;;;;;;;;;5036977;28;20561;-79
2021/11/03 04:36:40;;;;;;;3.90;3.15;;;;;;;;;;5036369;28;20489;-80
2021/11/03 04:39:08;;;;;;;4.75;3.00;;;;;;;;;;5036713;28;20052;-80
2021/11/03 04:41:34;;;;;;;5.00;2.65;;;;;;;;;;5036672;28;20021;-79
2021/11/03 04:44:00;;;;;;;5.20;2.80;;;;;;;;;;5036973;28;20029;-79
2021/11/03 04:46:26;;;;;;;3.90;2.60;;;;;;;;;;5036352;28;20053;-79
2021/11/03 04:48:52;;;;;;;7.03;2.80;;;;;;;;;;5036763;28;20037;-80
2021/11/03 04:51:18;;;;;;;6.50;3.13;;;;;;;;;;5037998;28;20108;-80
2021/11/03 04:53:44;;;;;;;4.30;3.40;;;;;;;;;;5044311;28;20025;-78
2021/11/03 04:56:12;;;;;;;4.55;3.10;;;;;;;;;;5046431;28;20106;-79
2021/11/03 04:58:38;;;;;;;5.05;3.25;;;;;;;;;;5021802;28;20033;-80
2021/11/03 05:01:04;;;;;;;5.45;3.35;;;;;;;;;;5035508;28;20036;-79
2021/11/03 05:03:30;;;;;;;8.60;3.30;;;;;;;;;;5035260;28;20057;-79
2021/11/03 05:05:57;;;;;;;7.20;3.85;;;;;;;;;;5034999;28;20551;-79
2021/11/03 05:08:23;;;;;;;6.25;4.07;;;;;;;;;;5035091;28;20109;-80
2021/11/03 05:10:49;;;;;;;5.93;4.53;;;;;;;;;;5035566;28;20071;-78
2021/11/03 05:13:15;;;;;;;8.25;3.80;;;;;;;;;;5036235;28;20381;-78
2021/11/03 05:15:41;;;;;;;6.82;3.60;;;;;;;;;;5031931;28;20030;-79
2021/11/03 05:18:08;;;;;;;4.95;3.35;;;;;;;;;;5026573;28;20029;-80
2021/11/03 05:20:34;;;;;;;4.57;3.45;;;;;;;;;;5024508;28;20030;-80
2021/11/03 05:23:01;;;;;;;5.60;3.92;;;;;;;;;;5032680;28;20109;-79
2021/11/03 05:25:27;;;;;;;7.05;3.88;;;;;;;;;;5032768;28;20087;-79
2021/11/03 05:27:54;;;;;;;7.40;4.00;;;;;;;;;;5035602;28;20075;-80
2021/11/03 05:30:21;;;;;;;6.25;4.30;;;;;;;;;;5039596;22;20255;-77
2021/11/03 05:32:47;;;;;;;10.60;3.55;;;;;;;;;;4996057;28;20026;-77
2021/11/03 05:35:13;;;;;;;5.78;4.13;;;;;;;;;;5012992;28;20057;-78
2021/11/03 05:37:39;;;;;;;5.80;3.50;;;;;;;;;;5013867;28;20047;-78
2021/11/03 05:40:07;;;;;;;8.00;4.18;;;;;;;;;;5006715;28;20037;-77
2021/11/03 05:42:33;;;;;;;7.10;3.97;;;;;;;;;;5002734;28;20114;-77
2021/11/03 05:44:59;;;;;;;6.90;3.42;;;;;;;;;;5010299;28;20084;-78
2021/11/03 05:47:27;;;;;;;7.25;3.90;;;;;;;;;;5013556;28;20022;-78
2021/11/03 05:49:54;;;;;;;5.53;3.95;;;;;;;;;;5013979;28;20084;-77
2021/11/03 05:52:20;;;;;;;6.40;4.20;;;;;;;;;;5013331;28;20394;-78
2021/11/03 05:54:47;;;;;;;6.75;4.32;;;;;;;;;;5008060;28;20030;-78
2021/11/03 05:57:22;;;;;;;6.30;4.15;;;;;;;;;;5008085;28;20536;-77
2021/11/03 05:59:48;;;;;;;4.93;3.80;;;;;;;;;;5013149;28;20029;-78
2021/11/03 06:02:14;;;;;;;5.60;4.07;;;;;;;;;;5013486;28;20037;-77
2021/11/03 06:04:40;;;;;;;4.88;3.65;;;;;;;;;;5012726;28;20026;-78
2021/11/03 06:07:06;;;;;;;7.20;3.88;;;;;;;;;;5003416;28;20406;-77
2021/11/03 06:09:32;;;;;;;6.75;3.85;;;;;;;;;;5004582;28;20439;-78
2021/11/03 06:11:58;;;;;;;7.18;3.95;;;;;;;;;;5011604;28;20026;-78
2021/11/03 06:14:24;;;;;;;6.03;3.92;;;;;;;;;;5012486;28;20026;-78
2021/11/03 06:16:50;;;;;;;5.53;3.70;;;;;;;;;;5013563;28;20034;-77
2021/11/03 06:19:16;;;;;;;4.43;3.17;;;;;;;;;;5013519;28;20486;-78
2021/11/03 06:21:43;;;;;;;6.40;3.17;;;;;;;;;;5014211;28;20034;-78
2021/11/03 06:24:09;;;;;;;4.95;3.28;;;;;;;;;;5014175;28;20025;-78
2021/11/03 06:26:35;;;;;;;6.43;3.47;;;;;;;;;;5015122;28;20379;-78
2021/11/03 06:29:01;;;;;;;5.10;3.38;;;;;;;;;;5010665;28;20019;-77
2021/11/03 06:31:27;;;;;;;10.35;4.60;;;;;;;;;;4995854;28;20130;-78
2021/11/03 06:33:53;;;;;;;8.38;4.18;;;;;;;;;;4996451;28;20038;-78
2021/11/03 06:36:19;;;;;;;6.22;3.28;;;;;;;;;;4995657;28;20069;-78
2021/11/03 06:38:45;;;;;;;6.65;3.78;;;;;;;;;;4995540;28;20113;-78
2021/11/03 06:41:12;;;;;;;4.13;2.78;;;;;;;;;;4998217;28;20069;-78
2021/11/03 06:43:38;;;;;;;7.32;3.33;;;;;;;;;;4998366;28;20030;-77
2021/11/03 06:46:05;;;;;;;4.05;3.00;;;;;;;;;;5004675;28;20022;-77
2021/11/03 06:48:31;;;;;;;3.78;3.10;;;;;;;;;;5004043;28;20022;-77
2021/11/03 06:50:57;;;;;;;5.55;3.20;;;;;;;;;;5007401;28;20057;-77
2021/11/03 06:53:25;;;;;;;4.25;3.30;;;;;;;;;;5013319;28;20030;-77
2021/11/03 06:55:51;;;;;;;4.97;3.10;;;;;;;;;;5008516;28;20026;-77
2021/11/03 06:58:18;;;;;;;6.20;2.50;;;;;;;;;;5013292;28;20028;-77
2021/11/03 07:00:45;;;;;;;4.55;2.80;;;;;;;;;;5015180;28;20450;-77
2021/11/03 07:03:12;;;;;;;3.65;2.70;;;;;;;;;;5011864;28;20108;-77
2021/11/03 07:05:40;;;;;;;4.57;2.53;;;;;;;;;;5011805;28;20479;-78
2021/11/03 07:08:06;;;;;;;4.35;2.65;;;;;;;;;;5012881;28;20026;-77
2021/11/03 07:10:36;;;;;;;2.85;2.30;;;;;;;;;;5011706;28;20030;-77
2021/11/03 07:13:03;;;;;;;5.03;2.20;;;;;;;;;;5012719;28;20026;-78
2021/11/03 07:15:29;;;;;;;3.08;2.05;;;;;;;;;;5012293;28;20117;-77
2021/11/03 07:17:55;;;;;;;3.38;1.98;;;;;;;;;;5012388;28;20026;-77
2021/11/03 07:20:21;;;;;;;4.57;2.00;;;;;;;;;;5012882;28;20038;-77
2021/11/03 07:22:47;;;;;;;4.63;1.70;;;;;;;;;;5011674;28;20034;-77
2021/11/03 07:25:17;;;;;;;4.07;2.20;;;;;;;;;;5010851;28;20026;-77
2021/11/03 07:27:43;;;;;;;3.53;1.77;;;;;;;;;;5007433;28;20437;-78
2021/11/03 07:30:10;;;;;;;3.85;2.22;;;;;;;;;;5015065;28;20058;-77
2021/11/03 07:32:36;;;;;;;3.78;2.00;;;;;;;;;;5016379;28;20034;-77
2021/11/03 07:35:02;;;;;;;7.07;2.30;;;;;;;;;;5014872;28;20026;-77
2021/11/03 07:37:28;;;;;;;3.20;1.90;;;;;;;;;;5015797;28;20041;-77
2021/11/03 07:39:54;;;;;;;3.03;1.83;;;;;;;;;;5015638;28;20030;-77
2021/11/03 07:42:20;;;;;;;2.97;1.95;;;;;;;;;;5014492;28;20397;-77
2021/11/03 07:44:46;;;;;;;5.13;2.55;;;;;;;;;;5005967;28;20038;-77
2021/11/03 07:47:12;;;;;;;4.47;2.72;;;;;;;;;;5012689;28;20030;-77
2021/11/03 07:49:38;;;;;;;4.07;1.83;;;;;;;;;;5015793;28;20055;-77
2021/11/03 07:52:04;;;;;;;8.68;5.10;;;;;;;;;;5015475;28;20033;-78
2021/11/03 07:54:30;;;;;;;4.20;2.55;;;;;;;;;;5015872;28;20367;-78
2021/11/03 07:56:56;;;;;;;9.07;6.70;;;;;;;;;;5016239;28;20037;-78
2021/11/03 07:59:22;;;;;;;6.90;3.25;;;;;;;;;;5016192;28;20022;-78
2021/11/03 08:01:48;;;;;;;4.75;2.88;;;;;;;;;;5015528;28;20042;-79
2021/11/03 08:04:14;;;;;;;6.65;3.08;;;;;;;;;;5015264;28;20108;-78
2021/11/03 08:06:41;;;;;;;3.45;1.98;;;;;;;;;;5016361;28;20034;-78
2021/11/03 08:09:08;;;;;;;4.20;2.40;;;;;;;;;;5015999;28;20427;-77
2021/11/03 08:11:46;;;;;;;3.78;2.10;;;;;;;;;;5015814;28;20022;-76
2021/11/03 08:14:12;;;;;;;5.38;2.00;;;;;;;;;;5020931;28;20117;-75
2021/11/03 08:16:47;;;;;;;3.05;1.60;;;;;;;;;;5010438;28;20029;-76
2021/11/03 08:19:13;;;;;;;3.63;1.90;;;;;;;;;;5011160;28;20281;-76
2021/11/03 08:21:39;;;;;;;4.75;1.98;;;;;;;;;;5017003;28;20119;-76
2021/11/03 08:24:05;;;;;;;5.13;2.22;;;;;;;;;;5014238;28;20037;-76
2021/11/03 08:26:31;;;;;;;3.70;1.98;;;;;;;;;;5014157;28;20449;-76
2021/11/03 08:28:57;;;;;;;3.20;1.92;;;;;;;;;;4996582;28;20411;-76
2021/11/03 08:31:23;;;;;;;3.63;2.03;;;;;;;;;;5011912;28;20042;-76
2021/11/03 08:33:49;;;;;;;2.63;1.80;;;;;;;;;;5013008;28;20037;-76
2021/11/03 08:36:16;;;;;;;3.58;1.95;;;;;;;;;;5011198;28;20034;-74
2021/11/03 08:38:42;;;;;;;3.22;1.77;;;;;;;;;;5013237;28;20030;-74
2021/11/03 08:41:08;;;;;;;5.00;2.08;;;;;;;;;;5014198;28;20053;-74
2021/11/03 08:43:35;;;;;;;4.40;2.00;;;;;;;;;;5011699;28;20490;-75
2021/11/03 08:46:08;;;;;;;4.32;2.25;;;;;;;;;;5005920;28;20034;-74
2021/11/03 08:48:34;;;;;;;5.07;2.22;;;;;;;;;;4999811;28;20043;-74
2021/11/03 08:51:00;;;;;;;3.00;2.00;;;;;;;;;;5005917;28;20509;-74
2021/11/03 08:53:26;;;;;;;2.75;2.00;;;;;;;;;;5012871;28;20516;-74
2021/11/03 08:55:52;;;;;;;3.33;2.20;;;;;;;;;;5009300;28;20501;-74
2021/11/03 08:58:22;;;;;;;3.38;2.40;;;;;;;;;;5008943;28;20030;-75
2021/11/03 09:00:50;;;;;;;7.68;2.47;;;;;;;;;;5013855;28;20498;-75
2021/11/03 09:03:16;;;;;;;4.28;2.70;;;;;;;;;;5014444;28;20034;-75
2021/11/03 09:05:43;;;;;;;6.00;3.15;;;;;;;;;;5013613;28;20076;-75
2021/11/03 09:08:09;;;;;;;5.05;2.80;;;;;;;;;;5013335;28;20022;-76
2021/11/03 09:10:39;;;;;;;5.75;3.03;;;;;;;;;;5014442;28;20030;-76
2021/11/03 09:13:05;;;;;;;5.47;2.90;;;;;;;;;;5007625;28;20388;-75
2021/11/03 09:15:31;;;;;;;6.55;2.60;;;;;;;;;;5009419;28;20048;-76
2021/11/03 09:17:57;;;;;;;5.43;2.50;;;;;;;;;;5012833;28;20042;-75
2021/11/03 09:20:25;;;;;;;4.35;2.50;;;;;;;;;;5003301;28;20064;-75
2021/11/03 09:22:51;;;;;;;6.18;2.65;;;;;;;;;;5004797;28;20042;-75
2021/11/03 09:25:19;;;;;;;6.30;2.83;;;;;;;;;;5014277;28;20037;-75
2021/11/03 09:27:46;;;;;;;4.43;2.30;;;;;;;;;;5017095;28;20026;-75
2021/11/03 09:30:13;;;;;;;5.45;2.92;;;;;;;;;;5015641;28;20680;-74
2021/11/03 09:32:41;;;;;;;4.03;2.42;;;;;;;;;;5021275;28;20105;-74
2021/11/03 09:35:07;;;;;;;5.10;2.40;;;;;;;;;;5016042;28;20060;-74
2021/11/03 09:37:34;;;;;;;4.18;2.60;;;;;;;;;;5019378;28;20053;-75
2021/11/03 09:40:00;;;;;;;5.93;3.38;;;;;;;;;;5017488;28;20034;-75
2021/11/03 09:42:27;;;;;;;4.80;2.85;;;;;;;;;;5017018;28;20032;-75
2021/11/03 09:44:54;;;;;;;4.07;2.53;;;;;;;;;;5014417;28;20026;-75
2021/11/03 09:47:22;;;;;;;5.07;2.38;;;;;;;;;;5013685;28;20033;-75
2021/11/03 09:49:49;;;;;;;6.10;2.65;;;;;;;;;;5015123;28;20029;-75
2021/11/03 09:52:16;;;;;;;3.15;2.50;;;;;;;;;;5000258;28;20034;-75
2021/11/03 09:54:44;;;;;;;3.35;2.28;;;;;;;;;;5005771;28;20484;-75
2021/11/03 09:57:22;;;;;;;5.13;2.42;;;;;;;;;;5013267;28;20053;-75
2021/11/03 09:59:52;;;;;;;3.83;1.98;;;;;;;;;;5013258;28;20398;-76
2021/11/03 10:02:33;;;;;;;5.20;2.30;;;;;;;;;;5010514;28;20030;-75
2021/11/03 10:05:14;;;;;;;4.30;2.28;;;;;;;;;;5004287;28;20014;-75
2021/11/03 10:07:49;;;;;;;2.95;1.50;;;;;;;;;;5012402;28;20025;-75
2021/11/03 10:10:20;;;;;;;5.07;1.73;;;;;;;;;;5013021;28;20041;-75
2021/11/03 10:12:46;;;;;;;3.60;1.27;;;;;;;;;;5013596;28;20022;-76
2021/11/03 10:15:15;;;;;;;3.38;1.38;;;;;;;;;;5012646;28;20449;-75
2021/11/03 10:17:41;;;;;;;3.15;1.27;;;17.20;99.90;;;;;;5013270;28;20029;-75
2021/11/03 10:20:30;;;;;;;3.83;1.30;;;10.70;99.90;;;;;;5012526;28;20032;-75
2021/11/03 10:23:14;;;;;;;3.40;1.42;;;10.70;99.90;;;;;;5012336;28;20033;-75
2021/11/03 10:25:47;;;;;;;2.53;0.98;;;10.60;99.90;;;;;;5011867;28;20024;-75
2021/11/03 10:28:28;;;;;;;3.03;1.20;;;10.60;99.90;;;;;;5012520;28;20037;-75
2021/11/03 10:30:54;;;;;;;1.60;1.10;;;10.70;99.90;;;;;;5012072;28;20030;-75
2021/11/03 10:33:38;;;;;;;3.70;1.45;;;12.30;99.90;;;;;;5012371;28;20041;-75
2021/11/03 10:36:19;;;;;;;1.50;1.05;;;10.90;99.90;;;;;;5011859;28;20498;-75
2021/11/03 10:39:13;;;;;;;1.92;1.30;;;10.90;99.90;;;;;;5012577;28;20025;-75
2021/11/03 10:41:39;;;;;;;4.22;1.73;;;11.20;99.90;;;;;;5012275;28;20076;-75
2021/11/03 10:44:26;;;;;;;5.40;1.63;;;11.50;99.90;;;;;;5013118;28;20034;-75
2021/11/03 10:47:12;;;;;;;3.90;1.40;;;11.80;99.90;;;;;;5009491;28;20723;-75
2021/11/03 10:50:03;;;;;;;3.42;1.50;;;11.00;99.90;;;;;;5012322;28;20105;-75
2021/11/03 10:52:52;;;;;;;3.13;1.77;;;10.90;99.90;;;;;;4988843;28;20048;-75
2021/11/03 10:55:37;;;;;;;3.65;1.58;;;10.60;99.90;;;;;;4997453;28;20407;-75
2021/11/03 10:58:13;;;;;;;3.25;1.85;;;10.60;99.90;;;;;;5006855;28;20515;-75
2021/11/03 11:01:07;;;;;;;4.13;1.63;;;10.50;99.90;;;;;;5003821;28;20398;-75
2021/11/03 11:03:51;;;;;;;3.35;1.70;;;10.50;99.90;;;;;;4994110;28;20524;-75
2021/11/03 11:06:22;;;;;;;2.83;1.65;;;11.50;99.90;;;;;;5024892;28;20026;-75
2021/11/03 11:08:58;;;;;;;3.50;1.70;;;10.70;99.90;;;;;;5012252;28;20021;-76
2021/11/03 11:11:27;;;;;;;2.83;2.35;;;11.50;99.90;;;;;;5011828;28;20029;-75
2021/11/03 11:14:01;;;;;;;5.28;2.00;;;10.20;99.90;;;;;;5006700;28;20064;-75
2021/11/03 11:16:44;;;;;;;3.55;1.88;;;10.50;99.90;;;;;;5005348;28;20177;-75
2021/11/03 11:19:42;;;;;;;3.53;1.92;;;10.40;99.90;;;;;;5012440;28;20022;-75
2021/11/03 11:22:41;;;;;;;3.45;2.10;;;10.20;99.90;;;;;;5011088;28;20499;-75
2021/11/03 11:25:43;;;;;;;5.68;1.98;;;10.30;99.90;;;;;;5011327;28;20096;-75
2021/11/03 11:28:45;;;;;;;4.03;1.90;;;10.00;99.90;;;;;;5012131;28;20075;-76
2021/11/03 11:31:33;;;;;;;2.95;1.90;;;9.90;99.90;;;;;;5009824;28;20038;-76
2021/11/03 11:34:17;;;;;;;3.38;2.10;;;10.00;99.90;;;;;;5011362;28;20037;-76
2021/11/03 11:37:17;;;;;;;3.88;2.45;;;9.80;99.90;;;;;;5004307;28;20565;-77
2021/11/03 11:39:48;;;;;;;4.03;2.13;;;9.70;99.90;;;;;;5003746;28;20077;-76
2021/11/03 11:42:37;;;;;;;4.18;2.85;;;9.80;99.90;;;;;;4994533;28;20395;-77
2021/11/03 11:45:20;;;;;;;6.00;2.88;;;9.70;99.90;;;;;;5011670;28;20030;-77
2021/11/03 11:47:47;;;;;;;;;;;9.60;99.90;;;;;;5013879;28;20026;-78
2021/11/03 11:50:31;;;;;;;3.85;2.78;;;9.60;99.90;;;;;;5012405;28;19953;-77
2021/11/03 11:52:59;;;;;;;6.70;2.70;;;9.60;99.90;;;;;;5012218;28;20034;-78
2021/11/03 11:55:29;;;;;;;4.38;2.60;;;9.40;99.90;;;;;;5012082;28;20096;-77
2021/11/03 11:57:58;;;;;;;5.15;2.92;;;9.80;99.90;;;;;;5001344;28;20034;-77
2021/11/03 12:00:25;;;;;;;4.13;2.80;;;9.50;99.90;;;;;;5007145;28;20041;-77
2021/11/03 12:02:51;;;;;;;7.15;4.45;;;10.60;99.90;;;;;;5012512;28;20113;-77
2021/11/03 12:05:27;;;;;;;5.15;3.40;;;9.50;99.90;;;;;;5011983;28;20068;-77
2021/11/03 12:08:11;;;;;;;3.63;2.90;;;9.80;99.90;;;;;;5011921;28;20022;-77
2021/11/03 12:10:55;;;;;;;4.72;2.60;;;11.00;99.90;;;;;;5008188;28;20120;-77
2021/11/03 12:13:44;;;;;;;4.93;2.67;;;10.00;99.90;;;;;;5025504;28;20112;-77
2021/11/03 12:16:19;;;;;;;7.30;3.58;;;;;;;;;;4996824;28;20049;-76
2021/11/03 12:18:45;;;;;;;4.13;2.60;;;;;;;;;;5007677;28;20030;-77
2021/11/03 12:21:17;;;;;;;4.78;2.70;;;;;;;;;;5006879;28;20026;-77
2021/11/03 12:23:46;;;;;;;3.33;2.72;;;;;;;;;;5010759;28;20120;-77
2021/11/03 12:26:30;;;;;;;3.50;2.80;;;;;;;;;;5009548;28;20030;-77
2021/11/03 12:29:14;;;;;;;7.10;3.05;;;;;;;;;;5009796;28;20441;-77
2021/11/03 12:31:43;;;;;;;4.90;2.70;;;;;;;;;;5010988;28;20511;-77
2021/11/03 12:34:09;;;;;;;7.07;2.92;;;;;;;;;;5011641;28;20442;-77
2021/11/03 12:36:47;;;;;;;4.88;3.05;;;;;;;;;;5013456;28;20514;-77
2021/11/03 12:39:29;;;;;;;5.10;3.17;;;;;;;;;;5012396;28;20037;-77
2021/11/03 12:41:56;;;;;;;6.78;3.05;;;;;;;;;;5016296;28;20037;-77
2021/11/03 12:44:26;;;;;;;5.75;3.45;;;;;;;;;;5019368;28;20022;-77
2021/11/03 12:46:52;;;;;;;5.68;2.97;;;;;;;;;;5020225;28;20048;-77
2021/11/03 12:49:21;;;;;;;6.28;3.42;;;;;;;;;;5019321;28;20558;-77
2021/11/03 12:51:50;;;;;;;5.93;3.55;;;;;;;;;;5013632;28;20096;-77
2021/11/03 12:54:21;;;;;;;5.57;3.15;;;;;;;;;;5014603;28;20022;-77
2021/11/03 12:56:55;;;;;;;4.68;3.30;;;;;;;;;;5008615;28;20033;-77
2021/11/03 12:59:23;;;;;;;6.68;3.85;;;;;;;;;;4997860;28;20018;-77
2021/11/03 13:01:51;;;;;;;8.13;4.38;;;;;;;;;;5013177;28;20026;-77
2021/11/03 13:04:19;;;;;;;7.35;3.80;;;;;;;;;;4996552;28;20494;-77
2021/11/03 13:06:47;;;;;;;5.05;3.47;;;;;;;;;;5013406;28;20093;-77
2021/11/03 13:09:27;;;;;;;8.68;4.38;;;;;;;;;;5013939;28;20025;-77
2021/11/03 13:11:53;;;;;;;6.20;3.88;;;;;;;;;;5014267;28;20095;-77
2021/11/03 13:14:22;;;;;;;6.88;3.70;;;;;;;;;;4996123;28;20515;-77
2021/11/03 13:16:49;;;;;;;6.22;4.00;;;;;;;;;;5008979;28;20030;-76
2021/11/03 13:19:21;;;;;;;9.27;4.72;;;;;;;;;;5000910;28;20033;-77
2021/11/03 13:21:48;;;;;;;9.75;4.00;;;;;;;;;;5013197;28;20041;-76
2021/11/03 13:24:18;;;;;;;8.13;3.92;;;;;;;;;;5009818;28;20047;-76
2021/11/03 13:26:45;;;;;;;6.28;3.63;;;;;;;;;;5001923;28;20030;-77
2021/11/03 13:29:34;;;;;;;4.82;3.28;;;;;;;;;;5013512;28;20507;-77
2021/11/03 13:32:19;;;;;;;4.28;2.80;;;;;;;;;;4999466;28;20113;-77
2021/11/03 13:34:48;;;;;;;7.22;3.08;;;;;;;;;;5013078;28;20553;-77
2021/11/03 13:37:19;;;;;;;5.47;3.22;;;;;;;;;;5013605;28;20057;-77
2021/11/03 13:40:15;;;;;;;5.20;3.42;;;;;;;;;;5013203;28;20117;-77
2021/11/03 13:42:44;;;;;;;7.68;3.85;;;;;;;;;;5012882;28;20461;-77
2021/11/03 13:45:16;;;;;;;4.07;3.38;;;;;;;;;;5011421;28;20433;-77
2021/11/03 13:47:42;;;;;;;5.65;3.47;;;;;;;;;;5013640;28;20029;-77
2021/11/03 13:50:23;;;;;;;7.35;3.65;;;;;;;;;;5021443;28;20045;-80
2021/11/03 13:53:07;;;;;;;5.28;3.80;;;;;;;;;;5022676;28;20034;-80
2021/11/03 13:55:39;;;;;;;6.38;3.25;;;;;;;;;;5024137;28;20026;-80
2021/11/03 13:58:24;;;;;;;6.95;4.07;;;;;;;;;;5024586;28;20057;-80
2021/11/03 14:00:57;;;;;;;4.57;3.40;;;;;;;;;;5021974;28;20030;-80
2021/11/03 14:03:25;;;;;;;8.85;3.88;;;;;;;;;;5017733;28;20105;-80
2021/11/03 14:05:50;;;;;;;6.80;5.00;;;;;;;;;;5018927;28;20021;-80
2021/11/03 14:08:25;;;;;;;6.60;4.35;;;;;;;;;;5019050;28;20065;-80
2021/11/03 14:10:51;;;;;;;5.85;4.38;;;;;;;;;;5019322;28;20048;-80
2021/11/03 14:13:17;;;;;;;4.90;4.07;;;;;;;;;;5020900;28;20486;-80
2021/11/03 14:15:43;;;;;;;8.18;4.50;;;;;;;;;;5019550;28;20023;-80
2021/11/03 14:18:10;;;;;;;7.80;4.75;;;;;;;;;;5020999;28;20080;-80
2021/11/03 14:20:55;;;;;;;9.25;4.80;;;;;;;;;;5019438;28;20088;-80
2021/11/03 14:23:22;;;;;;;8.60;4.82;;;;;;;;;;5018537;28;20034;-80
2021/11/03 14:25:48;;;;;;;5.63;4.15;;;;;;;;;;5019479;28;20065;-80
2021/11/03 14:28:16;;;;;;;6.07;4.50;;;;;;;;;;5018128;28;20474;-80
2021/11/03 14:30:45;;;;;;;6.18;4.53;;;;;;;;;;5019656;28;20092;-80
2021/11/03 14:33:28;;;;;;;6.90;3.83;;;;;;;;;;5020903;28;20030;-80
2021/11/03 14:35:55;;;;;;;4.45;3.42;;;;;;;;;;5015882;28;20037;-80
2021/11/03 14:38:21;;;;;;;7.13;3.55;;;;;;;;;;5017698;28;20040;-79
2021/11/03 14:40:47;;;;;;;9.18;4.75;;;;;;;;;;5019152;28;20101;-79
2021/11/03 14:43:13;;;;;;;5.53;3.88;;;;;;;;;;5019383;28;20034;-79